Time;durP1;ratioP1;P1;durP2;ratioP2;P2;SDS_P1;SDS_P2;PMS_P1;PMS_P2;Temp;Humidity;BMP_temperature;BMP_pressure;BME280_temperature;BME280_humidity;BME280_pressure;Samples;Min_cycle;Max_cycle;Signal;HPM_P1;HPM_P2
2023/06/08 00:01:52;;;;;;;15.95;11.20;;;;;;;;;;4974353;28;20517;-79
2023/06/08 00:04:19;;;;;;;14.75;10.48;;;;;;;;;;4991940;28;20041;-79
2023/06/08 00:06:45;;;;;;;11.20;9.95;;;;;;;;;;4991147;28;20102;-79
2023/06/08 00:09:11;;;;;;;12.43;10.40;;;;;;;;;;4992482;28;20469;-79
2023/06/08 00:11:38;;;;;;;15.13;10.85;;;;;;;;;;4993119;28;20057;-79
2023/06/08 00:14:04;;;;;;;13.68;10.65;;;;;;;;;;4975939;28;20023;-79
2023/06/08 00:16:30;;;;;;;12.05;9.82;;;;;;;;;;4993297;28;20057;-78
2023/06/08 00:18:56;;;;;;;13.43;11.35;;;;;;;;;;4992497;28;20483;-78
2023/06/08 00:21:26;;;;;;;13.00;11.13;;;;;;;;;;4992255;28;20022;-77
2023/06/08 00:23:52;;;;;;;14.82;10.70;;;;;;;;;;4992504;28;20507;-77
2023/06/08 00:26:18;;;;;;;14.82;11.18;;;;;;;;;;4974659;28;20362;-77
2023/06/08 00:28:48;;;;;;;13.63;11.55;;;;;;;;;;4992303;28;20019;-78
2023/06/08 00:31:15;;;;;;;13.30;11.63;;;;;;;;;;4994725;28;20045;-78
2023/06/08 00:33:41;;;;;;;17.17;11.98;;;;;;;;;;4978885;28;20026;-78
2023/06/08 00:36:07;;;;;;;13.35;11.93;;;;;;;;;;4996375;28;20027;-77
2023/06/08 00:38:36;;;;;;;14.65;11.30;;;;;;;;;;4996178;28;20026;-78
2023/06/08 00:41:02;;;;;;;16.02;12.30;;;;;;;;;;4995776;28;20122;-77
2023/06/08 00:43:28;;;;;;;15.77;11.38;;;;;;;;;;4996104;28;20050;-78
2023/06/08 00:45:56;;;;;;;12.82;11.50;;;;;;;;;;4978399;28;20030;-77
2023/06/08 00:48:22;;;;;;;16.08;11.88;;;;;;;;;;4995923;28;20129;-79
2023/06/08 00:50:50;;;;;;;14.38;11.50;;;;;;;;;;4996165;28;20023;-78
2023/06/08 00:53:16;;;;;;;13.65;10.90;;;;;;;;;;4995840;28;20393;-78
2023/06/08 00:55:43;;;;;;;14.45;11.02;;;;;;;;;;4978723;28;20023;-78
2023/06/08 00:58:13;;;;;;;14.27;11.80;;;;;;;;;;4995871;28;20050;-78
2023/06/08 01:00:39;;;;;;;12.23;10.40;;;;;;;;;;4996028;28;20015;-78
2023/06/08 01:03:06;;;;;;;13.10;11.60;;;;;;;;;;4996235;28;20022;-78
2023/06/08 01:05:38;;;;;;;11.52;10.35;;;;;;;;;;4995807;28;20023;-78
2023/06/08 01:08:13;;;;;;;14.48;9.82;;;;;;;;;;4995674;28;20396;-79
2023/06/08 01:10:58;;;;;;;15.15;11.40;;;;;;;;;;4995720;28;20026;-79
2023/06/08 01:13:27;;;;;;;14.02;11.20;;;;;;;;;;4995975;28;20407;-78
2023/06/08 01:15:57;;;;;;;13.63;11.18;;;;;;;;;;4995833;28;20031;-78
2023/06/08 01:18:24;;;;;;;13.73;11.30;;;;;;;;;;4995350;28;20026;-78
2023/06/08 01:21:06;;;;;;;13.10;11.75;;;;;;;;;;4978318;28;20473;-78
2023/06/08 01:23:37;;;;;;;17.75;11.95;;;;;;;;;;4995669;28;20076;-78
2023/06/08 01:26:04;;;;;;;15.85;11.88;;;;;;;;;;4996116;28;20027;-79
2023/06/08 01:28:30;;;;;;;13.20;11.80;;;;;;;;;;4996410;28;20126;-78
2023/06/08 01:30:58;;;;;;;14.02;12.05;;;;;;;;;;4995982;28;20515;-78
2023/06/08 01:33:26;;;;;;;12.93;10.93;;;;;;;;;;4995697;28;20038;-78
2023/06/08 01:35:57;;;;;;;14.77;12.35;;;;;;;;;;4997637;28;20022;-78
2023/06/08 01:38:35;;;;;;;15.85;11.70;;;;;;;;;;5007187;28;20090;-78
2023/06/08 01:41:06;;;;;;;13.82;11.45;;;;;;;;;;5043042;22;20201;-72
2023/06/08 01:43:33;;;;;;;14.60;11.82;;;;;;;;;;5034003;28;20080;-73
2023/06/08 01:46:00;;;;;;;13.95;12.45;;;;;;;;;;5034807;28;20030;-74
2023/06/08 01:48:26;;;;;;;15.77;13.07;;;;;;;;;;5016246;28;20025;-72
2023/06/08 01:50:53;;;;;;;14.85;13.00;;;;;;;;;;5034184;28;20018;-72
2023/06/08 01:53:19;;;;;;;20.63;13.20;;;;;;;;;;5034621;28;20029;-73
2023/06/08 01:55:49;;;;;;;14.40;12.90;;;;;;;;;;5034177;28;20044;-72
2023/06/08 01:58:15;;;;;;;17.13;13.13;;;;;;;;;;5034038;28;20029;-72
2023/06/08 02:00:41;;;;;;;15.63;13.60;;;;;;;;;;5033657;28;20097;-72
2023/06/08 02:03:07;;;;;;;14.40;12.43;;;;;;;;;;5033830;28;20060;-73
2023/06/08 02:05:33;;;;;;;15.73;13.20;;;;;;;;;;5016235;28;20021;-73
2023/06/08 02:07:59;;;;;;;18.55;13.80;;;;;;;;;;5033632;28;20384;-73
2023/06/08 02:10:26;;;;;;;14.30;12.80;;;;;;;;;;5033949;28;20392;-72
2023/06/08 02:12:52;;;;;;;15.93;12.60;;;;;;;;;;5033670;28;20444;-72
2023/06/08 02:15:18;;;;;;;15.68;13.57;;;;;;;;;;5033901;28;20119;-72
2023/06/08 02:17:44;;;;;;;18.33;14.13;;;;;;;;;;5033555;28;20026;-72
2023/06/08 02:20:10;;;;;;;18.23;14.85;;;;;;;;;;5015912;28;20022;-72
2023/06/08 02:22:36;;;;;;;20.02;15.82;;;;;;;;;;5033500;28;20032;-73
2023/06/08 02:25:07;;;;;;;17.52;14.27;;;;;;;;;;5015880;28;20061;-73
2023/06/08 02:27:36;;;;;;;18.80;15.73;;;;;;;;;;5015430;28;20030;-73
2023/06/08 02:30:02;;;;;;;16.35;14.65;;;;;;;;;;5015979;28;20022;-73
2023/06/08 02:32:32;;;;;;;21.05;14.27;;;;;;;;;;5033381;28;20018;-73
2023/06/08 02:34:59;;;;;;;16.02;14.23;;;;;;;;;;5033451;28;20038;-72
2023/06/08 02:37:26;;;;;;;17.45;14.52;;;;;;;;;;5033040;28;20503;-72
2023/06/08 02:39:52;;;;;;;15.27;13.10;;;;;;;;;;5033349;28;20033;-73
2023/06/08 02:42:18;;;;;;;17.75;13.63;;;;;;;;;;5033048;28;20045;-73
2023/06/08 02:44:45;;;;;;;18.08;14.43;;;;;;;;;;5015475;28;20018;-73
2023/06/08 02:47:11;;;;;;;15.63;13.30;;;;;;;;;;5032921;28;20050;-73
2023/06/08 02:49:37;;;;;;;16.88;15.07;;;;;;;;;;5032940;28;20462;-73
2023/06/08 02:52:03;;;;;;;14.90;13.32;;;;;;;;;;5014091;28;20053;-73
2023/06/08 02:54:30;;;;;;;17.95;14.70;;;;;;;;;;5032173;28;20071;-72
2023/06/08 02:56:56;;;;;;;16.48;14.50;;;;;;;;;;5032835;28;20735;-73
2023/06/08 02:59:22;;;;;;;19.17;14.45;;;;;;;;;;5015015;28;20037;-73
2023/06/08 03:01:54;;;;;;;17.23;14.45;;;;;;;;;;5032801;28;20475;-73
2023/06/08 03:04:21;;;;;;;17.15;15.45;;;;;;;;;;5015089;28;20025;-73
2023/06/08 03:06:53;;;;;;;17.15;13.93;;;;;;;;;;5032555;28;20065;-72
2023/06/08 03:09:23;;;;;;;15.27;13.18;;;;;;;;;;5014744;28;20028;-73
2023/06/08 03:11:49;;;;;;;15.05;13.35;;;;;;;;;;5032653;28;20080;-73
2023/06/08 03:14:18;;;;;;;16.60;14.40;;;;;;;;;;5032563;28;20579;-72
2023/06/08 03:16:45;;;;;;;14.52;12.93;;;;;;;;;;5014714;28;20535;-73
2023/06/08 03:19:12;;;;;;;14.80;13.18;;;;;;;;;;5032184;28;20646;-73
2023/06/08 03:21:38;;;;;;;16.02;13.40;;;;;;;;;;5032458;28;20029;-73
2023/06/08 03:24:05;;;;;;;21.30;15.13;;;;;;;;;;5032378;28;20498;-72
2023/06/08 03:26:31;;;;;;;16.27;13.77;;;;;;;;;;5032550;28;20028;-72
2023/06/08 03:28:57;;;;;;;18.08;13.73;;;;;;;;;;5032015;28;20025;-72
2023/06/08 03:31:24;;;;;;;14.73;13.23;;;;;;;;;;5032232;28;20024;-73
2023/06/08 03:33:50;;;;;;;16.75;13.00;;;;;;;;;;5032035;28;20033;-73
2023/06/08 03:36:16;;;;;;;14.07;12.63;;;;;;;;;;5032150;28;20034;-72
2023/06/08 03:38:42;;;;;;;17.08;13.98;;;;;;;;;;5031778;28;20057;-73
2023/06/08 03:41:08;;;;;;;16.33;13.75;;;;;;;;;;5031862;28;20038;-73
2023/06/08 03:43:37;;;;;;;13.65;12.27;;;;;;;;;;5031830;28;20022;-74
2023/06/08 03:46:03;;;;;;;16.92;13.02;;;;;;;;;;5031615;28;20491;-73
2023/06/08 03:48:29;;;;;;;16.02;13.43;;;;;;;;;;5031853;28;20111;-73
2023/06/08 03:50:55;;;;;;;18.65;13.18;;;;;;;;;;5031991;28;20018;-73
2023/06/08 03:53:21;;;;;;;15.25;13.27;;;;;;;;;;5032148;28;20468;-73
2023/06/08 03:55:47;;;;;;;14.80;12.48;;;;;;;;;;5032227;28;20108;-72
2023/06/08 03:58:13;;;;;;;18.60;13.57;;;;;;;;;;5031525;28;20060;-73
2023/06/08 04:00:39;;;;;;;16.17;13.90;;;;;;;;;;5031558;28;20026;-73
2023/06/08 04:03:05;;;;;;;15.27;13.60;;;;;;;;;;5031650;28;20021;-73
2023/06/08 04:05:33;;;;;;;14.88;12.82;;;;;;;;;;5031354;28;20422;-73
2023/06/08 04:08:02;;;;;;;14.30;12.88;;;;;;;;;;5031540;28;20067;-73
2023/06/08 04:10:28;;;;;;;14.52;12.98;;;;;;;;;;5013984;28;20018;-73
2023/06/08 04:12:54;;;;;;;13.90;12.40;;;;;;;;;;5031513;28;20026;-73
2023/06/08 04:15:20;;;;;;;15.23;13.27;;;;;;;;;;5031479;28;20017;-72
2023/06/08 04:17:49;;;;;;;15.75;13.52;;;;;;;;;;5031255;28;20056;-73
2023/06/08 04:20:15;;;;;;;14.27;12.75;;;;;;;;;;5030433;28;20022;-72
2023/06/08 04:22:41;;;;;;;13.98;12.50;;;;;;;;;;5026862;28;20040;-73
2023/06/08 04:25:08;;;;;;;14.32;12.80;;;;;;;;;;5031369;28;20043;-73
2023/06/08 04:27:34;;;;;;;18.00;12.40;;;;;;;;;;5031073;28;20038;-71
2023/06/08 04:30:00;;;;;;;15.52;12.00;;;;;;;;;;5031291;28;20025;-72
2023/06/08 04:32:27;;;;;;;14.30;12.80;;;;;;;;;;5031510;28;20254;-73
2023/06/08 04:34:53;;;;;;;17.40;14.05;;;;;;;;;;5031401;28;20551;-72
2023/06/08 04:37:20;;;;;;;14.27;12.75;;;;;;;;;;5031187;28;20049;-72
2023/06/08 04:39:48;;;;;;;15.68;13.05;;;;;;;;;;5031111;28;20030;-72
2023/06/08 04:42:14;;;;;;;13.48;12.07;;;;;;;;;;5031079;28;20025;-72
2023/06/08 04:44:41;;;;;;;14.57;13.07;;;;;;;;;;5031154;28;20032;-73
2023/06/08 04:47:07;;;;;;;17.50;13.70;;;;;;;;;;5030997;28;20057;-72
2023/06/08 04:49:34;;;;;;;15.48;13.02;;;;;;;;;;5031178;28;20025;-73
2023/06/08 04:52:00;;;;;;;15.55;13.23;;;;;;;;;;5031340;28;20046;-74
2023/06/08 04:54:27;;;;;;;16.58;13.52;;;;;;;;;;5013613;28;20021;-73
2023/06/08 04:56:58;;;;;;;16.25;14.55;;;;;;;;;;5031317;28;20029;-73
2023/06/08 04:59:24;;;;;;;23.92;17.33;;;;;;;;;;5031114;28;20101;-73
2023/06/08 05:01:50;;;;;;;19.70;16.83;;;;;;;;;;5031138;28;20040;-73
2023/06/08 05:04:16;;;;;;;19.58;16.50;;;;;;;;;;5031310;28;20021;-72
2023/06/08 05:06:42;;;;;;;24.85;19.38;;;;;;;;;;5031053;28;20025;-73
2023/06/08 05:09:08;;;;;;;23.58;21.00;;;;;;;;;;5013072;28;20028;-73
2023/06/08 05:11:34;;;;;;;27.92;23.88;;;;;;;;;;5030983;28;20022;-72
2023/06/08 05:14:00;;;;;;;28.40;24.63;;;;;;;;;;5031038;28;20384;-72
2023/06/08 05:16:26;;;;;;;32.35;27.40;;;;;;;;;;5031585;28;20508;-73
2023/06/08 05:18:52;;;;;;;33.65;27.52;;;;;;;;;;5034459;28;20032;-74
2023/06/08 05:21:18;;;;;;;28.83;25.00;;;;;;;;;;5034645;28;20068;-75
2023/06/08 05:23:44;;;;;;;52.67;32.63;;;;;;;;;;5017034;28;20061;-74
2023/06/08 05:26:10;;;;;;;35.88;32.15;;;;;;;;;;5034358;28;20056;-74
2023/06/08 05:28:37;;;;;;;41.60;35.33;;;;;;;;;;5034130;28;20376;-75
2023/06/08 05:31:03;;;;;;;41.53;37.20;;;;;;;;;;5033984;28;20075;-73
2023/06/08 05:33:29;;;;;;;36.97;33.17;;;;;;;;;;5034348;28;20017;-74
2023/06/08 05:35:55;;;;;;;32.55;29.33;;;;;;;;;;5034198;28;20024;-74
2023/06/08 05:38:21;;;;;;;36.60;32.95;;;;;;;;;;5033507;28;20026;-74
2023/06/08 05:40:48;;;;;;;42.45;38.28;;;;;;;;;;5032004;28;20033;-73
2023/06/08 05:43:14;;;;;;;52.50;46.95;;;;;;;;;;5033012;28;20117;-73
2023/06/08 05:45:40;;;;;;;48.78;43.67;;;;;;;;;;5033769;28;20022;-74
2023/06/08 05:48:07;;;;;;;52.20;47.10;;;;;;;;;;5033884;28;20021;-74
2023/06/08 05:50:33;;;;;;;52.20;47.05;;;;;;;;;;5034405;28;20018;-75
2023/06/08 05:53:00;;;;;;;51.47;46.28;;;;;;;;;;5033955;28;20033;-75
2023/06/08 05:55:26;;;;;;;52.00;46.80;;;;;;;;;;5033910;28;20029;-74
2023/06/08 05:57:52;;;;;;;46.10;41.30;;;;;;;;;;5033957;28;20104;-75
2023/06/08 06:00:18;;;;;;;39.72;35.95;;;;;;;;;;5034041;28;20065;-75
2023/06/08 06:02:45;;;;;;;36.42;32.70;;;;;;;;;;5035243;28;20048;-79
2023/06/08 06:05:11;;;;;;;34.45;31.15;;;;;;;;;;5036293;28;20038;-76
2023/06/08 06:07:37;;;;;;;32.17;28.67;;;;;;;;;;5033788;28;20376;-76
2023/06/08 06:10:04;;;;;;;34.08;30.63;;;;;;;;;;5034055;28;20029;-75
2023/06/08 06:12:30;;;;;;;27.10;23.25;;;;;;;;;;5015792;28;20041;-73
2023/06/08 06:14:56;;;;;;;26.15;23.38;;;;;;;;;;5015910;28;20083;-74
2023/06/08 06:17:22;;;;;;;24.40;21.90;;;;;;;;;;5033317;28;20479;-73
2023/06/08 06:19:49;;;;;;;25.73;22.27;;;;;;;;;;5014298;28;20493;-73
2023/06/08 06:22:16;;;;;;;24.00;21.55;;;;;;;;;;5031687;28;20028;-73
2023/06/08 06:24:42;;;;;;;23.45;19.42;;;;;;;;;;5031629;28;20029;-74
2023/06/08 06:27:08;;;;;;;20.55;18.13;;;;;;;;;;5013493;28;20052;-74
2023/06/08 06:29:34;;;;;;;19.63;17.58;;;;;;;;;;5030664;28;20025;-74
2023/06/08 06:32:00;;;;;;;18.50;16.60;;;;;;;;;;5031294;28;20036;-74
2023/06/08 06:34:27;;;;;;;19.85;15.40;;;;;;;;;;5032245;28;20017;-74
2023/06/08 06:36:53;;;;;;;18.85;16.10;;;;;;;;;;5033090;28;20032;-74
2023/06/08 06:39:19;;;;;;;18.63;15.55;;;;;;;;;;5032854;28;20113;-75
2023/06/08 06:41:45;;;;;;;17.08;15.25;;;;;;;;;;5032569;28;20029;-74
2023/06/08 06:44:11;;;;;;;15.70;14.13;;;;;;;;;;5032958;28;20025;-74
2023/06/08 06:46:38;;;;;;;22.17;14.00;;;;;;;;;;5033220;28;20070;-75
2023/06/08 06:49:04;;;;;;;19.35;13.77;;;;;;;;;;5033161;28;20108;-75
2023/06/08 06:51:36;;;;;;;14.20;12.30;;;;;;;;;;5032834;28;20068;-73
2023/06/08 06:54:02;;;;;;;15.23;12.77;;;;;;;;;;5033134;28;20228;-74
2023/06/08 06:56:28;;;;;;;15.02;12.15;;;;;;;;;;5032825;28;20041;-74
2023/06/08 06:58:56;;;;;;;15.77;13.10;;;;;;;;;;5032953;28;20030;-74
2023/06/08 07:01:38;;;;;;;14.43;11.43;;;;;;;;;;5033584;23;20037;-75
2023/06/08 07:04:04;;;;;;;16.25;12.32;;;;;;;;;;4994819;28;20088;-74
2023/06/08 07:06:33;;;;;;;15.32;12.05;;;;;;;;;;5013172;28;20041;-74
2023/06/08 07:09:04;;;;;;;14.75;12.15;;;;;;;;;;5013588;28;20057;-74
2023/06/08 07:11:35;;;;;;;14.98;10.70;;;;;;;;;;5014513;28;20025;-75
2023/06/08 07:14:07;;;;;;;15.70;11.52;;;;;;;;;;5013762;28;20026;-75
2023/06/08 07:16:33;;;;;;;12.35;9.10;;;;;;;;;;5012717;28;20025;-75
2023/06/08 07:19:01;;;;;;;11.10;9.05;;;;;;;;;;5012944;28;20022;-75
2023/06/08 07:21:30;;;;;;;15.35;10.63;;;;;;;;;;5013068;28;20647;-74
2023/06/08 07:23:59;;;;;;;14.57;11.80;;;;;;;;;;4995695;28;20034;-74
2023/06/08 07:26:35;;;;;;;15.27;10.98;;;;;;;;;;4995201;28;20443;-75
2023/06/08 07:29:06;;;;;;;14.82;11.57;;;;;;;;;;5012640;28;20084;-75
2023/06/08 07:31:36;;;;;;;;;;;26.00;61.30;;;;;;5012999;28;20480;-75
2023/06/08 07:34:15;;;;;;;12.35;10.43;;;25.80;63.10;;;;;;5012733;28;20004;-75
2023/06/08 07:36:49;;;;;;;13.50;11.57;;;26.10;60.90;;;;;;5012486;28;20029;-75
2023/06/08 07:39:24;;;;;;;18.33;12.43;;;26.30;57.30;;;;;;5012185;28;20519;-74
2023/06/08 07:41:50;;;;;;;13.07;11.68;;;25.90;60.00;;;;;;5031833;22;20049;-76
2023/06/08 07:44:15;;;;;;;19.25;11.60;;;26.50;58.30;;;;;;5031494;28;20125;-76
2023/06/08 07:46:41;;;;;;;11.95;10.20;;;28.30;56.10;;;;;;5031752;28;20048;-76
2023/06/08 07:49:06;;;;;;;15.82;10.90;;;29.60;51.50;;;;;;5031506;28;20044;-74
2023/06/08 07:51:32;;;;;;;10.63;9.52;;;30.60;46.60;;;;;;5031306;28;20022;-75
2023/06/08 07:53:57;;;;;;;12.50;10.80;;;30.80;46.20;;;;;;5031390;28;20108;-75
2023/06/08 07:56:23;;;;;;;11.30;9.98;;;;;;;;;;5031652;28;20033;-75
2023/06/08 07:58:50;;;;;;;14.88;10.55;;;;;;;;;;5029150;28;20479;-75
2023/06/08 08:01:16;;;;;;;11.80;10.57;;;;;;;;;;5030751;28;20546;-75
2023/06/08 08:03:42;;;;;;;13.90;10.60;;;;;;;;;;5029482;28;20400;-75
2023/06/08 08:06:08;;;;;;;11.95;9.40;;;;;;;;;;5029503;28;20022;-76
2023/06/08 08:08:34;;;;;;;12.35;9.20;;;;;;;;;;5029496;28;20024;-76
2023/06/08 08:11:00;;;;;;;11.57;9.15;;;;;;;;;;5030150;28;20026;-76
2023/06/08 08:13:26;;;;;;;12.32;9.32;;;;;;;;;;5030024;28;20079;-76
2023/06/08 08:15:52;;;;;;;14.00;8.50;;;32.20;42.50;;;;;;5030056;28;20018;-76
2023/06/08 08:18:17;;;;;;;12.25;7.53;;;32.70;40.00;;;;;;5030973;28;20029;-78
2023/06/08 08:20:43;;;;;;;11.25;7.90;;;32.80;40.80;;;;;;5029882;28;20014;-76
2023/06/08 08:23:08;;;;;;;12.88;7.75;;;33.40;38.60;;;;;;5031137;28;20542;-76
2023/06/08 08:25:37;;;;;;;11.27;7.75;;;34.40;36.40;;;;;;5031353;28;20037;-76
2023/06/08 08:28:02;;;;;;;11.15;7.43;;;35.30;36.00;;;;;;5030888;28;20030;-76
2023/06/08 08:30:28;;;;;;;8.80;7.90;;;35.20;35.50;;;;;;5033085;28;20120;-77
2023/06/08 08:32:54;;;;;;;10.02;8.48;;;35.50;35.90;;;;;;5031879;28;20021;-77
2023/06/08 08:35:20;;;;;;;13.70;9.10;;;35.50;33.90;;;;;;5031223;28;20105;-76
2023/06/08 08:37:45;;;;;;;13.00;9.00;;;34.50;35.20;;;;;;5031146;28;20476;-76
2023/06/08 08:40:12;;;;;;;10.73;7.10;;;;;;;;;;5031388;28;20037;-77
2023/06/08 08:43:11;;;;;;;10.23;6.95;;;33.60;36.90;;;;;;5031686;28;20041;-76
2023/06/08 08:45:39;;;;;;;11.70;7.37;;;34.80;35.90;;;;;;5030643;28;20033;-76
2023/06/08 08:48:07;;;;;;;11.55;7.78;;;34.40;33.30;;;;;;5031056;28;20151;-76
2023/06/08 08:50:38;;;;;;;11.38;7.88;;;33.60;34.50;;;;;;5031057;28;20018;-76
2023/06/08 08:53:06;;;;;;;9.68;7.03;;;32.40;37.60;;;;;;5034082;28;20025;-76
2023/06/08 08:55:33;;;;;;;8.45;7.20;;;33.10;35.50;;;;;;5034772;28;20030;-76
2023/06/08 08:58:00;;;;;;;13.73;8.07;;;;;;;;;;5034673;28;20021;-76
2023/06/08 09:00:26;;;;;;;11.23;7.80;;;31.40;37.80;;;;;;5017209;28;20021;-76
2023/06/08 09:02:52;;;;;;;11.02;6.95;;;31.30;37.90;;;;;;5035251;28;20544;-76
2023/06/08 09:05:18;;;;;;;10.02;6.20;;;32.40;37.70;;;;;;5017744;28;20044;-76
2023/06/08 09:07:44;;;;;;;8.25;6.82;;;33.70;36.10;;;;;;5017294;28;20116;-76
2023/06/08 09:10:24;;;;;;;8.70;7.15;;;33.50;34.90;;;;;;5034900;28;20056;-76
2023/06/08 09:12:52;;;;;;;10.48;7.88;;;33.80;34.10;;;;;;5034884;28;20035;-76
2023/06/08 09:15:33;;;;;;;10.23;8.00;;;33.90;33.40;;;;;;5034863;28;20446;-76
2023/06/08 09:18:04;;;;;;;14.38;7.75;;;32.30;34.90;;;;;;5034601;28;20033;-75
2023/06/08 09:20:34;;;;;;;11.77;9.35;;;30.90;37.70;;;;;;5017012;28;20383;-75
2023/06/08 09:23:21;;;;;;;18.58;9.38;;;;;;;;;;5016439;28;20033;-75
2023/06/08 09:25:47;;;;;;;14.80;8.63;;;;;;;;;;5034556;28;20060;-75
2023/06/08 09:28:16;;;;;;;9.95;8.45;;;;;;;;;;5033005;28;20472;-75
2023/06/08 09:30:44;;;;;;;14.00;7.60;;;30.90;39.60;;;;;;5033629;28;20021;-75
2023/06/08 09:33:33;;;;;;;11.60;7.38;;;31.90;38.40;;;;;;5032911;28;20041;-75
2023/06/08 09:35:58;;;;;;;15.18;8.35;;;33.10;37.40;;;;;;5033083;28;20021;-75
2023/06/08 09:38:26;;;;;;;10.57;7.30;;;33.70;35.30;;;;;;5033401;28;20097;-75
2023/06/08 09:41:11;;;;;;;9.98;7.70;;;33.70;33.40;;;;;;5033204;28;20018;-75
2023/06/08 09:43:37;;;;;;;14.55;8.95;;;;;;;;;;5033302;28;20620;-75
2023/06/08 09:46:03;;;;;;;7.90;7.07;;;30.90;39.20;;;;;;5033686;28;20036;-75
2023/06/08 09:48:28;;;;;;;8.90;7.57;;;31.30;39.40;;;;;;5033971;28;20025;-75
2023/06/08 09:51:00;;;;;;;8.70;7.72;;;32.00;37.20;;;;;;5034486;28;20061;-75
2023/06/08 09:53:28;;;;;;;8.38;7.15;;;31.90;36.40;;;;;;5034222;28;20022;-76
2023/06/08 09:55:54;;;;;;;9.85;8.00;;;31.00;37.30;;;;;;5034297;28;20154;-74
2023/06/08 09:58:24;;;;;;;12.57;8.00;;;30.00;38.80;;;;;;5033784;28;20028;-75
2023/06/08 10:00:53;;;;;;;9.68;6.88;;;30.20;40.10;;;;;;5034320;28;20022;-75
2023/06/08 10:03:28;;;;;;;12.45;7.72;;;31.00;39.60;;;;;;5015765;28;20026;-75
2023/06/08 10:05:55;;;;;;;11.25;6.55;;;31.50;38.40;;;;;;5034116;28;20025;-75
2023/06/08 10:08:24;;;;;;;9.70;7.07;;;32.10;37.30;;;;;;5033757;28;20032;-76
2023/06/08 10:10:50;;;;;;;8.63;7.30;;;32.40;37.80;;;;;;5033974;28;20518;-75
2023/06/08 10:13:17;;;;;;;8.35;6.93;;;32.20;36.00;;;;;;5033732;28;20101;-75
2023/06/08 10:15:43;;;;;;;13.90;7.57;;;31.60;37.60;;;;;;5016063;28;20021;-75
2023/06/08 10:18:09;;;;;;;15.98;9.40;;;30.50;38.10;;;;;;5033531;28;20485;-75
2023/06/08 10:20:35;;;;;;;11.38;8.98;;;29.50;40.00;;;;;;5033760;28;20030;-75
2023/06/08 10:23:03;;;;;;;12.95;8.63;;;29.00;42.50;;;;;;5033624;28;20100;-75
2023/06/08 10:25:30;;;;;;;9.30;8.25;;;29.30;42.20;;;;;;5034001;28;20038;-75
2023/06/08 10:28:06;;;;;;;9.98;7.28;;;29.60;42.30;;;;;;5015690;28;20064;-75
2023/06/08 10:30:39;;;;;;;15.30;8.27;;;29.60;40.80;;;;;;5033689;28;20497;-75
2023/06/08 10:33:21;;;;;;;12.68;8.77;;;29.20;41.70;;;;;;5016190;28;20079;-75
2023/06/08 10:36:03;;;;;;;10.77;8.30;;;29.00;41.90;;;;;;5034052;28;20021;-75
2023/06/08 10:38:29;;;;;;;15.30;8.98;;;;;;;;;;5033457;28;20503;-75
2023/06/08 10:40:55;;;;;;;9.73;7.75;;;;;;;;;;5033622;28;20032;-75
2023/06/08 10:43:28;;;;;;;10.57;9.20;;;;;;;;;;5033173;28;20025;-75
2023/06/08 10:45:55;;;;;;;16.55;8.77;;;;;;;;;;5015457;28;20029;-75
2023/06/08 10:48:21;;;;;;;9.65;8.07;;;;;;;;;;5033072;28;20033;-76
2023/06/08 10:50:49;;;;;;;10.93;8.48;;;;;;;;;;5034157;28;20029;-75
2023/06/08 10:53:19;;;;;;;11.95;8.52;;;;;;;;;;5031410;28;20033;-75
2023/06/08 10:55:48;;;;;;;17.48;9.40;;;;;;;;;;5033044;28;20387;-75
2023/06/08 10:58:18;;;;;;;11.82;9.30;;;;;;;;;;5032357;28;20184;-75
2023/06/08 11:00:46;;;;;;;9.63;8.63;;;;;;;;;;5031011;28;20056;-75
2023/06/08 11:03:16;;;;;;;10.55;8.18;;;;;;;;;;5029745;28;20032;-75
2023/06/08 11:05:44;;;;;;;7.80;6.95;;;;;;;;;;5031779;28;20021;-75
2023/06/08 11:08:11;;;;;;;10.18;7.85;;;;;;;;;;5030841;28;20040;-76
2023/06/08 11:10:39;;;;;;;13.68;8.70;;;;;;;;;;5031364;28;20476;-76
2023/06/08 11:13:12;;;;;;;8.93;8.02;;;;;;;;;;5031722;28;20062;-75
2023/06/08 11:15:42;;;;;;;8.90;7.65;;;;;;;;;;5030153;28;20029;-76
2023/06/08 11:18:08;;;;;;;12.10;7.85;;;;;;;;;;5011215;28;20696;-75
2023/06/08 11:20:37;;;;;;;14.45;7.78;;;;;;;;;;5010855;28;20030;-75
2023/06/08 11:23:05;;;;;;;9.15;7.60;;;;;;;;;;5011342;28;20026;-77
2023/06/08 11:25:31;;;;;;;11.23;8.05;;;;;;;;;;5010712;28;20034;-75
2023/06/08 11:27:57;;;;;;;13.13;7.50;;;;;;;;;;5010535;28;20030;-75
2023/06/08 11:30:28;;;;;;;7.93;6.57;;;;;;;;;;5010689;28;20026;-75
2023/06/08 11:32:54;;;;;;;9.98;6.90;;;;;;;;;;5011532;28;20582;-75
2023/06/08 11:35:21;;;;;;;7.22;6.32;;;;;;;;;;5012118;28;20101;-75
2023/06/08 11:37:51;;;;;;;9.50;6.93;;;;;;;;;;5011949;28;20030;-75
2023/06/08 11:40:17;;;;;;;9.25;6.80;;;;;;;;;;5012276;28;20032;-76
2023/06/08 11:42:43;;;;;;;13.20;7.57;;;;;;;;;;5012537;28;20072;-76
2023/06/08 11:45:10;;;;;;;8.52;6.60;;;;;;;;;;5012299;28;20053;-75
2023/06/08 11:47:36;;;;;;;8.90;6.25;;;;;;;;;;5011889;28;20029;-76
2023/06/08 11:50:04;;;;;;;11.50;6.88;;;;;;;;;;5012427;28;20061;-76
2023/06/08 11:52:33;;;;;;;10.55;7.10;;;;;;;;;;4995059;28;20029;-76
2023/06/08 11:55:01;;;;;;;11.27;7.15;;;;;;;;;;5012540;28;20018;-76
2023/06/08 11:57:47;;;;;;;12.23;7.30;;;;;;;;;;4995327;28;20530;-76
2023/06/08 12:00:16;;;;;;;10.57;7.20;;;;;;;;;;5012250;28;20057;-76
2023/06/08 12:02:43;;;;;;;9.45;7.20;;;;;;;;;;5012104;28;20083;-76
2023/06/08 12:05:14;;;;;;;10.32;7.10;;;;;;;;;;5012153;28;20026;-76
2023/06/08 12:07:40;;;;;;;11.00;7.20;;;;;;;;;;5011792;28;20507;-76
2023/06/08 12:10:06;;;;;;;14.80;9.32;;;;;;;;;;5012231;28;20030;-77
2023/06/08 12:12:32;;;;;;;8.32;7.35;;;;;;;;;;4994208;28;20132;-76
2023/06/08 12:14:59;;;;;;;10.05;7.70;;;;;;;;;;5011981;28;20037;-76
2023/06/08 12:17:26;;;;;;;7.90;7.10;;;;;;;;;;5012002;28;20096;-77
2023/06/08 12:19:53;;;;;;;11.52;7.28;;;;;;;;;;5012449;28;20392;-76
2023/06/08 12:22:19;;;;;;;10.00;7.50;;;;;;;;;;4994771;28;20041;-77
2023/06/08 12:24:45;;;;;;;12.85;6.95;;;;;;;;;;5024772;28;20030;-76
2023/06/08 12:27:11;;;;;;;9.82;8.65;;;;;;;;;;5027884;28;20030;-75
2023/06/08 12:29:38;;;;;;;26.73;14.40;;;;;;;;;;5029838;28;20022;-75
2023/06/08 12:32:04;;;;;;;25.33;19.13;;;;;;;;;;5022861;28;20487;-76
2023/06/08 12:34:31;;;;;;;30.95;25.08;;;;;;;;;;5023174;28;20112;-76
2023/06/08 12:36:57;;;;;;;36.83;33.00;;;;;;;;;;5031669;28;20036;-76
2023/06/08 12:39:23;;;;;;;34.08;30.73;;;;;;;;;;5031578;28;20034;-77
2023/06/08 12:41:49;;;;;;;35.97;32.17;;;;;;;;;;5032361;28;20060;-77
2023/06/08 12:44:16;;;;;;;43.85;37.55;;;;;;;;;;5033229;28;20033;-77
2023/06/08 12:46:42;;;;;;;42.35;35.22;;;;;;;;;;5032064;28;20642;-77
2023/06/08 12:49:08;;;;;;;34.00;29.48;;;;;;;;;;5031545;28;20029;-77
2023/06/08 12:51:34;;;;;;;40.50;35.80;;;;;;;;;;5014645;28;20538;-78
2023/06/08 12:54:00;;;;;;;47.60;42.25;;;;;;;;;;5033328;28;20076;-78
2023/06/08 12:56:26;;;;;;;45.05;40.30;;;;;;;;;;5033613;28;20025;-77
2023/06/08 12:58:53;;;;;;;48.28;43.30;;;;;;;;;;5033984;28;20087;-77
2023/06/08 13:01:20;;;;;;;48.70;43.50;;;;;;;;;;5034375;28;20030;-77
2023/06/08 13:03:46;;;;;;;50.28;45.13;;;;;;;;;;5034399;28;20029;-77
2023/06/08 13:06:12;;;;;;;31.50;28.35;;;;;;;;;;5034036;28;20021;-77
2023/06/08 13:08:38;;;;;;;32.13;29.13;;;;;;;;;;5033922;28;20112;-77
2023/06/08 13:11:04;;;;;;;32.65;29.58;;;;;;;;;;5034336;28;20049;-77
2023/06/08 13:13:30;;;;;;;28.02;25.27;;;;;;;;;;5036560;28;20021;-77
2023/06/08 13:15:58;;;;;;;24.20;22.05;;;;;;;;;;5041451;28;20106;-77
2023/06/08 13:18:24;;;;;;;25.52;20.98;;;;;;;;;;5038111;28;20036;-77
2023/06/08 13:20:53;;;;;;;25.60;22.55;;;;;;;;;;5033704;28;20033;-77
2023/06/08 13:23:20;;;;;;;20.73;18.85;;;;;;;;;;5015121;28;20029;-76
2023/06/08 13:25:46;;;;;;;18.17;16.25;;;;;;;;;;5031394;28;20029;-77
2023/06/08 13:28:13;;;;;;;19.17;13.80;;;;;;;;;;5013219;28;20033;-76
2023/06/08 13:30:39;;;;;;;19.23;17.13;;;;;;;;;;5030888;28;20022;-76
2023/06/08 13:33:05;;;;;;;15.75;14.07;;;;;;;;;;5031036;28;20053;-76
2023/06/08 13:35:31;;;;;;;13.50;11.80;;;;;;;;;;5032131;28;20021;-77
2023/06/08 13:37:58;;;;;;;14.63;10.80;;;;;;;;;;5035009;28;20025;-76
2023/06/08 13:40:24;;;;;;;11.20;10.10;;;;;;;;;;5036449;28;20484;-77
2023/06/08 13:42:50;;;;;;;12.13;10.13;;;;;;;;;;5054810;23;20057;-71
2023/06/08 13:45:17;;;;;;;14.30;8.90;;;;;;;;;;5014249;28;20566;-71
2023/06/08 13:47:43;;;;;;;13.18;8.30;;;;;;;;;;4996885;28;20073;-71
2023/06/08 13:50:09;;;;;;;13.95;7.95;;;;;;;;;;5014570;28;20033;-72
2023/06/08 13:52:35;;;;;;;9.68;7.95;;;;;;;;;;5014517;28;20028;-72
2023/06/08 13:55:02;;;;;;;14.02;6.20;;;;;;;;;;5014295;28;20051;-73
2023/06/08 13:57:28;;;;;;;10.43;6.82;;;;;;;;;;4996482;28;20030;-73
2023/06/08 13:59:55;;;;;;;12.30;6.90;;;;;;;;;;5014251;28;20439;-72
2023/06/08 14:02:21;;;;;;;9.25;6.80;;;;;;;;;;5014118;28;20033;-73
2023/06/08 14:04:47;;;;;;;8.95;6.88;;;;;;;;;;5013861;28;20438;-73